Time;durP1;ratioP1;P1;durP2;ratioP2;P2;SDS_P1;SDS_P2;PMS_P1;PMS_P2;Temp;Humidity;BMP_temperature;BMP_pressure;BME280_temperature;BME280_humidity;BME280_pressure;Samples;Min_cycle;Max_cycle;Signal;HPM_P1;HPM_P2
2023/07/28 00:02:23;;;;;;;31.60;14.35;;;17.90;99.90;;;;;;4968208;28;80870;-72
2023/07/28 00:04:49;;;;;;;29.38;13.00;;;17.90;99.90;;;;;;4975158;28;20050;-72
2023/07/28 00:07:15;;;;;;;31.30;13.35;;;17.90;99.90;;;;;;4961813;28;262240;-73
2023/07/28 00:09:41;;;;;;;27.35;13.27;;;17.90;99.90;;;;;;4975776;28;20062;-73
2023/07/28 00:12:08;;;;;;;30.50;13.18;;;17.90;99.90;;;;;;4964599;28;262619;-72
2023/07/28 00:14:34;;;;;;;33.00;13.32;;;17.90;99.90;;;;;;4978456;28;20061;-72
2023/07/28 00:17:00;;;;;;;35.30;13.47;;;17.90;99.90;;;;;;4962942;28;252465;-72
2023/07/28 00:19:26;;;;;;;26.67;12.65;;;17.90;99.90;;;;;;4991624;28;20046;-73
2023/07/28 00:21:53;;;;;;;27.70;13.07;;;17.90;99.90;;;;;;4957507;28;263879;-73
2023/07/28 00:24:19;;;;;;;29.85;13.40;;;17.90;99.90;;;;;;4978424;28;20069;-72
2023/07/28 00:26:45;;;;;;;28.83;13.65;;;17.90;99.90;;;;;;4975612;28;20058;-71
2023/07/28 00:29:11;;;;;;;29.35;14.57;;;17.90;99.90;;;;;;4956735;28;256405;-72
2023/07/28 00:31:37;;;;;;;31.58;14.25;;;17.90;99.90;;;;;;4973918;28;20431;-72
2023/07/28 00:34:04;;;;;;;30.42;15.68;;;17.90;99.90;;;;;;4979991;28;243425;-72
2023/07/28 00:36:33;;;;;;;34.53;16.70;;;17.90;99.90;;;;;;4962038;28;20065;-72
2023/07/28 00:38:59;;;;;;;32.47;17.73;;;18.00;99.90;;;;;;4968338;28;68243;-72
2023/07/28 00:41:25;;;;;;;40.08;19.38;;;17.90;99.90;;;;;;4977507;28;20050;-72
2023/07/28 00:43:51;;;;;;;46.67;21.08;;;17.90;99.90;;;;;;4966029;28;169193;-73
2023/07/28 00:46:17;;;;;;;42.67;21.05;;;17.90;99.90;;;;;;4980096;28;20057;-73
2023/07/28 00:48:44;;;;;;;43.97;21.05;;;17.90;99.90;;;;;;4972643;28;55032;-73
2023/07/28 00:51:11;;;;;;;47.03;21.90;;;17.90;99.90;;;;;;4977240;28;20050;-73
2023/07/28 00:53:38;;;;;;;47.75;22.65;;;17.90;99.90;;;;;;4936545;28;208420;-72
2023/07/28 00:56:05;;;;;;;40.03;21.02;;;18.00;99.90;;;;;;4962191;28;20900;-72
2023/07/28 00:58:31;;;;;;;45.60;21.70;;;17.90;99.90;;;;;;4970575;28;51770;-72
2023/07/28 01:00:57;;;;;;;43.25;20.60;;;17.90;99.90;;;;;;4981055;28;20053;-72
2023/07/28 01:03:24;;;;;;;39.80;19.83;;;17.90;99.90;;;;;;4970580;28;100288;-72
2023/07/28 01:06:26;;;;;;;40.60;20.92;;;18.00;99.90;;;;;;4981954;28;20057;-72
2023/07/28 01:09:05;;;;;;;43.60;20.35;;;17.90;99.90;;;;;;4977605;28;253292;-71
2023/07/28 01:11:31;;;;;;;44.95;20.25;;;17.90;99.90;;;;;;4978483;28;20050;-72
2023/07/28 01:13:58;;;;;;;44.08;20.30;;;17.90;99.90;;;;;;4972478;28;256228;-73
2023/07/28 01:16:24;;;;;;;40.60;20.85;;;17.90;99.90;;;;;;4979797;28;20635;-73
2023/07/28 01:18:50;;;;;;;43.05;20.13;;;17.90;99.90;;;;;;4967962;28;140774;-72
2023/07/28 01:21:30;;;;;;;43.33;19.98;;;18.00;99.90;;;;;;4991779;28;20054;-72
2023/07/28 01:24:08;;;;;;;40.33;19.88;;;17.90;99.90;;;;;;4973089;28;258481;-73
2023/07/28 01:26:36;;;;;;;39.60;19.92;;;17.90;99.90;;;;;;4979423;28;20054;-73
2023/07/28 01:29:03;;;;;;;40.28;18.88;;;17.90;99.90;;;;;;4964639;28;152872;-72
2023/07/28 01:31:30;;;;;;;34.47;17.65;;;17.90;99.90;;;;;;4980302;28;20061;-74
2023/07/28 01:33:56;;;;;;;44.10;18.05;;;17.90;99.90;;;;;;4969312;28;85831;-73
2023/07/28 01:36:22;;;;;;;34.53;17.45;;;17.90;99.90;;;;;;4964119;28;20384;-70
2023/07/28 01:38:48;;;;;;;41.22;17.40;;;18.00;99.90;;;;;;4977516;28;260366;-69
2023/07/28 01:41:14;;;;;;;32.63;16.00;;;17.90;99.90;;;;;;4979010;28;20523;-70
2023/07/28 01:43:41;;;;;;;37.75;16.23;;;17.90;99.90;;;;;;4965631;28;46542;-70
2023/07/28 01:46:08;;;;;;;34.90;14.70;;;17.90;99.90;;;;;;4976985;28;20118;-70
2023/07/28 01:48:34;;;;;;;31.30;15.15;;;17.90;99.90;;;;;;4969346;28;177396;-72
2023/07/28 01:51:00;;;;;;;36.33;16.20;;;17.90;99.90;;;;;;4979036;28;20054;-73
2023/07/28 01:53:26;;;;;;;36.30;16.15;;;17.90;99.90;;;;;;4949239;28;212098;-74
2023/07/28 01:55:53;;;;;;;41.33;16.55;;;17.90;99.90;;;;;;4979957;28;20062;-73
2023/07/28 01:58:19;;;;;;;44.33;17.40;;;17.90;99.90;;;;;;4968185;28;166390;-74
2023/07/28 02:00:46;;;;;;;44.47;17.17;;;18.00;99.90;;;;;;4962826;28;20054;-73
2023/07/28 02:03:12;;;;;;;33.72;16.15;;;17.90;99.90;;;;;;4965235;28;161361;-72
2023/07/28 02:05:38;;;;;;;36.13;16.50;;;17.90;99.90;;;;;;4982565;28;20049;-73
2023/07/28 02:08:04;;;;;;;42.03;16.98;;;17.90;99.90;;;;;;4971146;28;88443;-72
2023/07/28 02:10:30;;;;;;;37.80;16.85;;;17.90;99.90;;;;;;4985197;28;20061;-74
2023/07/28 02:12:57;;;;;;;46.05;18.08;;;17.90;99.90;;;;;;4984430;28;134558;-73
2023/07/28 02:15:23;;;;;;;45.05;17.00;;;17.90;99.90;;;;;;4979933;28;20050;-72
2023/07/28 02:17:49;;;;;;;47.88;17.42;;;17.90;99.90;;;;;;4962833;28;207919;-72
2023/07/28 02:20:15;;;;;;;43.70;18.08;;;17.90;99.90;;;;;;4984310;28;20408;-72
2023/07/28 02:22:42;;;;;;;42.47;17.08;;;17.90;99.90;;;;;;4967363;28;136111;-71
2023/07/28 02:25:09;;;;;;;45.42;17.45;;;17.90;99.90;;;;;;4977463;28;20046;-72
2023/07/28 02:27:39;;;;;;;39.50;17.02;;;17.90;99.90;;;;;;4964400;28;229067;-72
2023/07/28 02:30:06;;;;;;;37.67;17.08;;;18.00;99.90;;;;;;4991580;28;20066;-72
2023/07/28 02:32:33;;;;;;;39.33;16.58;;;17.90;99.90;;;;;;4966265;28;203140;-72
2023/07/28 02:34:59;;;;;;;45.95;16.83;;;17.90;99.90;;;;;;4961987;28;20456;-72
2023/07/28 02:37:25;;;;;;;46.88;15.93;;;18.00;99.90;;;;;;4971692;28;31278;-72
2023/07/28 02:39:51;;;;;;;37.90;14.82;;;17.90;99.90;;;;;;4964590;28;20054;-73
2023/07/28 02:42:18;;;;;;;35.00;15.88;;;17.90;99.90;;;;;;4967617;28;144031;-72
2023/07/28 02:44:44;;;;;;;46.67;15.35;;;18.00;99.90;;;;;;4979788;28;20062;-73
2023/07/28 02:47:10;;;;;;;33.67;14.82;;;18.00;99.90;;;;;;4965963;28;258428;-72
2023/07/28 02:49:36;;;;;;;33.72;13.95;;;18.00;99.90;;;;;;4980865;28;20046;-74
2023/07/28 02:52:03;;;;;;;42.08;15.27;;;18.00;99.90;;;;;;4950012;28;269128;-73
2023/07/28 02:54:29;;;;;;;35.70;14.55;;;18.00;99.90;;;;;;4993932;28;20050;-73
2023/07/28 02:56:55;;;;;;;34.97;14.70;;;18.00;99.90;;;;;;4960780;28;262310;-72
2023/07/28 02:59:23;;;;;;;39.20;14.50;;;18.00;99.90;;;;;;4997551;28;20038;-73
2023/07/28 03:01:51;;;;;;;32.45;14.10;;;18.00;99.90;;;;;;4980287;28;20054;-73
2023/07/28 03:04:20;;;;;;;41.38;14.60;;;17.90;99.90;;;;;;4971616;28;20046;-73
2023/07/28 03:06:47;;;;;;;33.30;13.55;;;18.00;99.90;;;;;;4984010;28;20050;-73
2023/07/28 03:09:14;;;;;;;33.28;13.35;;;18.00;99.90;;;;;;4967120;28;20050;-73
2023/07/28 03:11:47;;;;;;;35.85;13.45;;;17.90;99.90;;;;;;4984216;28;20050;-73
2023/07/28 03:14:13;;;;;;;32.00;12.43;;;18.00;99.90;;;;;;4965560;28;111253;-74
2023/07/28 03:16:42;;;;;;;33.47;13.30;;;17.90;99.90;;;;;;4978878;28;20058;-73
2023/07/28 03:19:08;;;;;;;33.20;13.40;;;17.90;99.90;;;;;;4961691;28;146912;-73
2023/07/28 03:21:34;;;;;;;35.22;13.32;;;18.00;99.90;;;;;;4979024;28;20439;-74
2023/07/28 03:24:00;;;;;;;31.73;13.35;;;18.00;99.90;;;;;;4977796;28;257988;-74
2023/07/28 03:26:26;;;;;;;36.80;13.93;;;18.00;99.90;;;;;;4976464;28;20073;-73
2023/07/28 03:28:52;;;;;;;24.92;11.57;;;18.00;99.90;;;;;;4975539;28;268771;-73
2023/07/28 03:31:19;;;;;;;29.05;12.00;;;17.90;99.90;;;;;;4968509;28;20443;-74
2023/07/28 03:33:45;;;;;;;34.97;12.57;;;17.90;99.90;;;;;;4952426;28;213333;-73
2023/07/28 03:36:11;;;;;;;36.80;12.70;;;17.90;99.90;;;;;;4977675;28;20515;-73
2023/07/28 03:38:37;;;;;;;32.63;13.05;;;17.90;99.90;;;;;;4969995;28;72750;-73
2023/07/28 03:41:03;;;;;;;28.52;12.43;;;17.90;99.90;;;;;;4978244;28;21100;-73
2023/07/28 03:43:30;;;;;;;35.08;11.85;;;17.90;99.90;;;;;;4964340;28;213568;-73
2023/07/28 03:45:56;;;;;;;30.70;12.38;;;17.90;99.90;;;;;;4983564;28;20058;-73
2023/07/28 03:48:22;;;;;;;28.63;12.27;;;17.90;99.90;;;;;;4963738;28;223058;-73
2023/07/28 03:50:49;;;;;;;36.85;12.32;;;17.90;99.90;;;;;;4978725;28;20063;-74
2023/07/28 03:53:15;;;;;;;28.85;12.23;;;17.90;99.90;;;;;;4954667;28;152171;-73
2023/07/28 03:55:41;;;;;;;31.58;12.30;;;17.90;99.90;;;;;;4966663;28;20046;-72
2023/07/28 03:58:07;;;;;;;33.88;12.32;;;17.90;99.90;;;;;;4967624;28;65767;-74
2023/07/28 04:00:33;;;;;;;25.58;11.65;;;17.90;99.90;;;;;;4980262;28;20482;-71
2023/07/28 04:02:59;;;;;;;29.13;12.32;;;17.90;99.90;;;;;;4968512;28;283961;-73
2023/07/28 04:05:25;;;;;;;31.75;12.35;;;17.90;99.90;;;;;;4986750;28;20062;-73
2023/07/28 04:07:51;;;;;;;26.58;12.55;;;17.90;99.90;;;;;;4963087;28;153282;-72
2023/07/28 04:10:17;;;;;;;32.75;13.00;;;17.90;99.90;;;;;;4978718;28;20057;-73
2023/07/28 04:12:43;;;;;;;33.42;13.15;;;17.90;99.90;;;;;;4968285;28;100103;-72
2023/07/28 04:15:10;;;;;;;28.10;12.48;;;17.90;99.90;;;;;;4976280;28;20055;-72
2023/07/28 04:17:36;;;;;;;32.03;12.73;;;17.90;99.90;;;;;;4966351;28;112608;-72
2023/07/28 04:20:02;;;;;;;38.10;12.68;;;18.00;99.90;;;;;;4976139;28;20431;-72
2023/07/28 04:22:28;;;;;;;31.90;12.02;;;17.90;99.90;;;;;;4969292;28;28660;-73
2023/07/28 04:24:54;;;;;;;35.53;12.48;;;17.90;99.90;;;;;;4991130;28;20061;-73
2023/07/28 04:27:20;;;;;;;37.33;13.05;;;17.90;99.90;;;;;;4959621;28;259840;-74
2023/07/28 04:29:46;;;;;;;34.53;12.75;;;18.00;99.90;;;;;;4983027;28;20077;-73
2023/07/28 04:32:13;;;;;;;31.67;13.30;;;18.00;99.90;;;;;;4966737;28;261338;-72
2023/07/28 04:34:39;;;;;;;28.77;12.40;;;18.00;99.90;;;;;;4983218;28;20527;-74
2023/07/28 04:37:05;;;;;;;26.90;11.88;;;18.00;99.90;;;;;;4962915;28;280038;-73
2023/07/28 04:39:31;;;;;;;31.05;12.13;;;18.00;99.90;;;;;;4969630;28;20050;-73
2023/07/28 04:41:57;;;;;;;30.95;11.80;;;18.00;99.90;;;;;;4972995;28;264072;-73
2023/07/28 04:44:23;;;;;;;29.30;12.00;;;18.00;99.90;;;;;;4981239;28;20415;-73
2023/07/28 04:46:49;;;;;;;31.33;11.85;;;18.00;99.90;;;;;;4974987;28;257060;-73
2023/07/28 04:49:16;;;;;;;29.30;11.32;;;18.00;99.90;;;;;;4978859;28;20054;-73
2023/07/28 04:51:42;;;;;;;26.40;12.50;;;18.10;99.90;;;;;;4984881;28;20136;-74
2023/07/28 04:54:08;;;;;;;28.17;12.10;;;18.10;99.90;;;;;;4953578;28;144217;-73
2023/07/28 04:56:34;;;;;;;29.58;12.63;;;18.10;99.90;;;;;;4981933;28;20412;-74
2023/07/28 04:59:00;;;;;;;25.50;11.68;;;18.10;99.90;;;;;;4972592;28;51909;-74
2023/07/28 05:01:26;;;;;;;26.73;11.50;;;18.10;99.90;;;;;;4978507;28;20822;-73
2023/07/28 05:03:52;;;;;;;27.85;11.10;;;18.10;99.90;;;;;;4981353;28;256958;-72
2023/07/28 05:06:18;;;;;;;29.92;11.23;;;18.10;99.90;;;;;;4981261;28;20061;-71
2023/07/28 05:08:44;;;;;;;25.90;11.60;;;18.10;99.90;;;;;;4967108;28;126950;-70
2023/07/28 05:11:11;;;;;;;26.95;11.55;;;18.10;99.90;;;;;;4984930;28;20065;-70
2023/07/28 05:13:37;;;;;;;22.92;12.05;;;18.10;99.90;;;;;;4956506;28;158775;-71
2023/07/28 05:16:03;;;;;;;31.15;11.00;;;18.20;99.90;;;;;;4982421;28;20411;-71
2023/07/28 05:18:29;;;;;;;28.30;11.23;;;18.20;99.90;;;;;;4974939;28;256153;-71
2023/07/28 05:20:55;;;;;;;28.85;10.60;;;18.20;99.90;;;;;;4981889;28;20046;-71
2023/07/28 05:23:21;;;;;;;23.73;10.45;;;18.20;99.90;;;;;;4970527;28;114507;-71
2023/07/28 05:25:47;;;;;;;27.90;10.50;;;18.20;99.90;;;;;;4980112;28;20061;-73
2023/07/28 05:28:13;;;;;;;21.40;9.63;;;18.20;99.90;;;;;;4971507;28;72866;-71
2023/07/28 05:30:39;;;;;;;28.63;10.18;;;18.20;99.90;;;;;;4983139;28;20061;-73
2023/07/28 05:33:06;;;;;;;24.45;9.90;;;18.20;99.90;;;;;;4953805;28;74823;-73
2023/07/28 05:35:32;;;;;;;25.00;10.13;;;18.30;99.90;;;;;;4983454;28;20419;-74
2023/07/28 05:37:58;;;;;;;26.25;9.13;;;18.30;99.90;;;;;;4976287;28;20045;-73
2023/07/28 05:40:24;;;;;;;24.90;9.30;;;18.30;99.90;;;;;;4982017;28;20764;-73
2023/07/28 05:42:50;;;;;;;25.73;9.48;;;18.30;99.90;;;;;;4971874;28;274244;-74
2023/07/28 05:45:16;;;;;;;22.75;8.82;;;18.30;99.90;;;;;;4989604;28;20069;-73
2023/07/28 05:47:42;;;;;;;22.55;9.05;;;18.40;99.90;;;;;;4969646;28;260116;-72
2023/07/28 05:50:09;;;;;;;22.15;9.15;;;18.40;99.90;;;;;;4978020;28;20069;-73
2023/07/28 05:52:35;;;;;;;24.27;9.20;;;18.40;99.90;;;;;;4959966;28;120420;-72
2023/07/28 05:55:01;;;;;;;26.23;9.02;;;18.50;99.90;;;;;;4978220;28;20050;-72
2023/07/28 05:57:27;;;;;;;25.55;8.88;;;18.50;99.90;;;;;;4965131;28;253653;-72
2023/07/28 05:59:53;;;;;;;18.90;8.35;;;18.50;99.90;;;;;;4980446;28;20061;-72
2023/07/28 06:02:19;;;;;;;23.73;8.70;;;18.50;99.90;;;;;;4971593;28;93175;-71
2023/07/28 06:04:46;;;;;;;21.88;9.10;;;18.50;99.90;;;;;;4980608;28;20057;-71
2023/07/28 06:07:12;;;;;;;24.45;8.30;;;18.60;99.90;;;;;;4960351;28;299859;-70
2023/07/28 06:09:38;;;;;;;20.40;8.55;;;18.60;99.90;;;;;;4966736;28;20392;-73
2023/07/28 06:12:05;;;;;;;23.73;8.60;;;18.60;99.90;;;;;;4966085;28;263446;-71
2023/07/28 06:14:31;;;;;;;23.67;8.38;;;18.70;99.90;;;;;;4994044;28;20054;-71
2023/07/28 06:16:57;;;;;;;19.83;7.85;;;18.70;99.90;;;;;;4965111;28;238455;-70
2023/07/28 06:19:23;;;;;;;19.27;7.60;;;18.70;99.90;;;;;;4964665;28;20046;-72
2023/07/28 06:21:51;;;;;;;18.00;7.13;;;18.80;99.90;;;;;;4973124;28;271459;-71
2023/07/28 06:24:17;;;;;;;22.80;7.63;;;18.80;99.90;;;;;;4990641;28;20053;-71
2023/07/28 06:26:43;;;;;;;19.15;7.28;;;18.80;99.90;;;;;;4975867;28;20054;-73
2023/07/28 06:29:09;;;;;;;20.30;7.68;;;18.80;99.90;;;;;;4972716;28;265274;-72
2023/07/28 06:31:35;;;;;;;24.90;8.05;;;18.80;99.90;;;;;;4981464;28;20428;-72
2023/07/28 06:34:01;;;;;;;19.08;6.93;;;18.90;99.90;;;;;;4978295;28;122655;-73
2023/07/28 06:36:28;;;;;;;19.05;7.00;;;18.90;99.90;;;;;;4981183;28;20057;-72
2023/07/28 06:38:55;;;;;;;14.98;6.80;;;18.90;99.90;;;;;;4974577;28;254157;-72
2023/07/28 06:41:22;;;;;;;18.58;6.30;;;18.90;99.90;;;;;;4980376;28;20740;-72
2023/07/28 06:43:50;;;;;;;18.23;6.45;;;18.90;99.90;;;;;;4970996;28;272520;-72
2023/07/28 06:46:17;;;;;;;15.93;6.20;;;19.00;99.90;;;;;;4982128;28;20775;-73
2023/07/28 06:48:43;;;;;;;16.73;6.00;;;19.00;99.90;;;;;;4978270;28;248653;-72
2023/07/28 06:51:09;;;;;;;15.10;5.30;;;19.10;99.90;;;;;;4981057;28;20054;-72
2023/07/28 06:53:35;;;;;;;16.25;5.20;;;19.10;99.90;;;;;;4924822;28;206181;-72
2023/07/28 06:56:01;;;;;;;10.75;4.32;;;19.30;99.90;;;;;;4977765;28;20478;-71
2023/07/28 06:58:27;;;;;;;14.70;4.75;;;19.30;99.90;;;;;;4966195;28;263789;-71
2023/07/28 07:00:55;;;;;;;14.38;4.90;;;19.40;99.90;;;;;;4979292;28;20073;-73
2023/07/28 07:03:23;;;;;;;13.68;4.63;;;19.60;99.90;;;;;;4970331;28;255080;-74
2023/07/28 07:05:49;;;;;;;17.67;5.30;;;19.60;99.90;;;;;;4977521;28;20051;-71
2023/07/28 07:08:16;;;;;;;12.00;4.65;;;19.70;99.90;;;;;;4971642;28;282990;-71
2023/07/28 07:10:52;;;;;;;13.27;5.00;;;19.60;99.90;;;;;;4982222;28;20050;-72
2023/07/28 07:13:19;;;;;;;16.40;5.32;;;19.60;99.90;;;;;;4971602;28;269243;-71
2023/07/28 07:15:45;;;;;;;16.98;5.30;;;19.70;99.90;;;;;;4974445;28;20353;-72
2023/07/28 07:18:11;;;;;;;14.70;4.93;;;19.60;99.90;;;;;;4968060;28;20041;-72
2023/07/28 07:20:38;;;;;;;17.63;5.65;;;19.60;99.90;;;;;;4985722;28;20415;-72
2023/07/28 07:23:05;;;;;;;13.60;5.60;;;19.90;99.90;;;;;;4968809;28;69870;-71
2023/07/28 07:25:31;;;;;;;14.85;4.97;;;20.20;99.90;;;;;;4982988;28;20067;-70
2023/07/28 07:27:57;;;;;;;14.15;4.97;;;20.20;99.90;;;;;;4966043;28;126704;-73
2023/07/28 07:30:23;;;;;;;14.07;4.38;;;20.20;99.90;;;;;;4987327;28;20088;-71
2023/07/28 07:32:50;;;;;;;11.77;4.32;;;20.10;99.90;;;;;;4967071;28;161766;-71
2023/07/28 07:35:16;;;;;;;14.65;4.70;;;20.60;99.90;;;;;;4984759;28;20066;-71
2023/07/28 07:37:43;;;;;;;14.20;4.35;;;20.50;99.90;;;;;;4969460;28;263596;-72
2023/07/28 07:40:09;;;;;;;14.32;4.22;;;20.40;99.90;;;;;;4963386;28;20050;-72
2023/07/28 07:42:48;;;;;;;11.85;3.80;;;20.50;99.90;;;;;;4962866;28;264095;-71
2023/07/28 07:45:15;;;;;;;11.15;4.07;;;20.70;99.90;;;;;;4963720;28;20054;-71
2023/07/28 07:47:42;;;;;;;15.40;3.97;;;21.00;99.90;;;;;;4962482;28;259804;-71
2023/07/28 07:50:10;;;;;;;10.18;3.08;;;20.90;99.90;;;;;;4974648;28;20047;-72
2023/07/28 07:52:37;;;;;;;11.15;3.10;;;21.10;99.90;;;;;;4949497;28;256367;-72
2023/07/28 07:55:04;;;;;;;13.02;3.20;;;21.40;99.90;;;;;;4973917;28;20050;-72
2023/07/28 07:57:30;;;;;;;11.10;3.13;;;21.60;99.90;;;;;;4961870;28;173073;-71
2023/07/28 07:59:58;;;;;;;11.55;2.97;;;22.00;99.90;;;;;;4986254;28;20054;-72
2023/07/28 08:02:24;;;;;;;12.20;3.30;;;21.80;99.90;;;;;;4964219;28;186496;-72
2023/07/28 08:04:53;;;;;;;11.13;3.33;;;21.80;99.90;;;;;;4989514;28;20443;-71
2023/07/28 08:07:20;;;;;;;11.00;3.20;;;21.80;99.90;;;;;;4968227;28;253341;-72
2023/07/28 08:09:46;;;;;;;11.32;3.00;;;21.90;99.90;;;;;;4983150;28;20042;-71
2023/07/28 08:12:14;;;;;;;9.45;3.03;;;21.90;99.90;;;;;;4963731;28;265699;-70
2023/07/28 08:14:40;;;;;;;10.20;3.22;;;21.70;99.90;;;;;;4993801;28;20061;-71
2023/07/28 08:17:07;;;;;;;10.33;3.50;;;21.60;99.90;;;;;;4964042;28;275299;-71
2023/07/28 08:19:33;;;;;;;9.63;2.97;;;22.00;99.90;;;;;;4997484;28;20054;-70
2023/07/28 08:21:59;;;;;;;9.27;2.80;;;22.40;99.90;;;;;;4966328;28;273638;-71
2023/07/28 08:24:25;;;;;;;10.40;3.10;;;22.60;99.90;;;;;;5000132;28;20046;-68
2023/07/28 08:26:51;;;;;;;10.65;3.20;;;22.50;99.90;;;;;;4966790;28;255882;-72
2023/07/28 08:29:17;;;;;;;11.52;3.40;;;23.00;99.90;;;;;;4985523;28;20058;-71
2023/07/28 08:31:43;;;;;;;9.82;2.80;;;23.30;99.90;;;;;;4968939;28;20061;-71
2023/07/28 08:34:09;;;;;;;8.57;2.30;;;23.50;99.90;;;;;;4969116;28;184223;-72
2023/07/28 08:36:35;;;;;;;9.25;2.40;;;23.70;99.90;;;;;;4986273;28;20058;-72
2023/07/28 08:39:02;;;;;;;8.57;2.45;;;23.90;99.90;;;;;;4981308;28;279978;-72
2023/07/28 08:41:28;;;;;;;8.95;2.35;;;23.90;99.90;;;;;;4985497;28;20065;-71
2023/07/28 08:43:54;;;;;;;9.27;2.70;;;23.80;99.90;;;;;;4968566;28;245034;-72
2023/07/28 08:46:20;;;;;;;8.52;2.63;;;24.10;99.90;;;;;;4985878;28;20062;-71
2023/07/28 08:48:47;;;;;;;8.93;2.17;;;23.70;99.90;;;;;;4979497;28;256450;-72
2023/07/28 08:51:13;;;;;;;9.25;2.42;;;23.30;99.90;;;;;;4983411;28;20096;-72
2023/07/28 08:53:40;;;;;;;10.10;2.30;;;23.50;99.90;;;;;;4966011;28;259364;-72
2023/07/28 08:56:06;;;;;;;8.75;2.08;;;23.20;99.90;;;;;;4984483;28;20652;-72
2023/07/28 08:58:33;;;;;;;7.78;2.20;;;22.90;99.90;;;;;;4981704;28;256027;-71
2023/07/28 09:01:03;;;;;;;8.02;2.00;;;23.40;99.90;;;;;;4984852;28;20431;-72
2023/07/28 09:03:29;;;;;;;8.67;1.97;;;24.20;99.90;;;;;;4977059;28;115308;-72
2023/07/28 09:06:01;;;;;;;9.05;2.30;;;24.70;99.90;;;;;;4982474;28;20511;-69
2023/07/28 09:08:27;;;;;;;8.05;2.42;;;24.90;99.90;;;;;;4979942;28;269128;-70
2023/07/28 09:10:54;;;;;;;9.90;2.50;;;24.20;99.90;;;;;;4978524;28;20065;-70
2023/07/28 09:13:20;;;;;;;9.30;2.30;;;24.30;99.90;;;;;;4979268;28;268755;-69
2023/07/28 09:15:47;;;;;;;8.13;2.15;;;24.40;99.90;;;;;;4984250;28;20059;-70
2023/07/28 09:18:15;;;;;;;9.30;2.70;;;24.20;99.90;;;;;;4973987;28;257298;-69
2023/07/28 09:20:42;;;;;;;9.85;2.60;;;23.90;99.90;;;;;;4967272;28;21326;-70
2023/07/28 09:23:09;;;;;;;9.30;2.60;;;24.00;99.90;;;;;;4951524;28;175896;-70
2023/07/28 09:25:36;;;;;;;9.40;2.80;;;23.60;99.90;;;;;;4977203;28;20400;-70
2023/07/28 09:28:03;;;;;;;9.60;2.72;;;23.50;99.90;;;;;;4973711;28;259645;-71
2023/07/28 09:30:45;;;;;;;9.60;3.00;;;23.30;99.90;;;;;;4988856;28;20046;-71
2023/07/28 09:33:11;;;;;;;10.88;2.85;;;23.20;99.90;;;;;;4954625;28;96725;-70
2023/07/28 09:35:48;;;;;;;8.88;2.80;;;23.10;99.90;;;;;;4977763;28;20504;-70
2023/07/28 09:38:15;;;;;;;9.30;2.95;;;23.10;99.90;;;;;;4965746;28;236653;-70
2023/07/28 09:40:43;;;;;;;8.65;2.88;;;23.00;99.90;;;;;;4980293;28;20058;-71
2023/07/28 09:43:10;;;;;;;8.10;2.45;;;22.80;99.90;;;;;;4970648;28;260023;-70
2023/07/28 09:45:36;;;;;;;8.00;2.72;;;22.70;99.90;;;;;;4988841;28;21415;-70
2023/07/28 09:48:07;;;;;;;8.98;2.63;;;22.50;99.90;;;;;;4966860;28;256972;-70
2023/07/28 09:50:35;;;;;;;9.40;2.67;;;22.70;99.90;;;;;;4977234;28;20972;-69
2023/07/28 09:53:03;;;;;;;8.35;2.80;;;22.80;99.90;;;;;;4944889;28;263808;-70
2023/07/28 09:55:30;;;;;;;10.73;2.70;;;23.50;99.90;;;;;;4952217;28;20046;-70
2023/07/28 09:58:01;;;;;;;9.57;3.17;;;23.40;99.90;;;;;;4974196;28;51565;-70
2023/07/28 10:00:28;;;;;;;10.13;3.40;;;23.20;99.90;;;;;;4987185;28;20050;-70
2023/07/28 10:02:56;;;;;;;10.15;3.35;;;23.00;99.90;;;;;;4953950;28;147050;-70
2023/07/28 10:05:24;;;;;;;11.30;3.60;;;23.90;99.90;;;;;;4976531;28;20503;-70
2023/07/28 10:07:51;;;;;;;10.75;3.15;;;24.00;99.90;;;;;;4972106;28;262644;-70
2023/07/28 10:10:18;;;;;;;9.68;3.05;;;23.90;99.90;;;;;;4982497;28;20050;-71
2023/07/28 10:12:48;;;;;;;13.20;3.38;;;23.70;99.90;;;;;;4971122;28;256435;-70
2023/07/28 10:15:17;;;;;;;10.10;2.73;;;23.80;99.90;;;;;;4989026;28;20061;-70
2023/07/28 10:17:47;;;;;;;10.35;2.60;;;24.30;99.90;;;;;;4972133;28;245079;-70
2023/07/28 10:20:43;;;;;;;9.05;2.47;;;24.50;99.90;;;;;;4977429;28;20046;-70
2023/07/28 10:23:14;;;;;;;8.30;2.40;;;25.20;99.90;;;;;;4969091;28;81557;-71
2023/07/28 10:25:42;;;;;;;10.35;3.17;;;24.90;99.90;;;;;;4980961;28;21211;-71
2023/07/28 10:28:27;;;;;;;10.18;2.60;;;24.30;99.90;;;;;;4962834;28;171289;-70
2023/07/28 10:30:55;;;;;;;9.90;2.80;;;24.00;99.90;;;;;;4984919;28;20058;-70
2023/07/28 10:33:31;;;;;;;9.23;2.85;;;23.80;99.90;;;;;;4966685;28;256767;-69
2023/07/28 10:35:59;;;;;;;12.30;2.60;;;24.30;99.90;;;;;;4986442;28;20065;-71
2023/07/28 10:38:30;;;;;;;10.00;2.70;;;24.70;99.90;;;;;;4966654;28;122416;-71
2023/07/28 10:41:08;;;;;;;7.90;2.65;;;25.40;99.90;;;;;;4980763;28;20130;-70
2023/07/28 10:43:35;;;;;;;8.85;2.63;;;26.00;99.90;;;;;;4969703;28;259885;-70
2023/07/28 10:46:01;;;;;;;8.70;2.45;;;25.70;99.90;;;;;;4971003;28;20052;-70
2023/07/28 10:48:27;;;;;;;9.15;2.25;;;25.50;99.90;;;;;;4973381;28;321729;-70
2023/07/28 10:50:53;;;;;;;9.18;2.47;;;25.50;99.90;;;;;;4963759;28;20046;-70
2023/07/28 10:53:19;;;;;;;8.80;2.40;;;25.90;99.90;;;;;;4969506;28;139824;-69
2023/07/28 10:55:45;;;;;;;7.10;2.10;;;26.30;99.90;;;;;;4963818;28;20551;-69
2023/07/28 10:58:11;;;;;;;8.57;2.40;;;26.30;99.90;;;;;;4969535;28;20054;-69
2023/07/28 11:00:38;;;;;;;7.53;2.10;;;26.30;99.90;;;;;;4980435;28;20543;-69
2023/07/28 11:03:04;;;;;;;8.60;2.42;;;26.50;99.90;;;;;;4970877;28;268599;-70
2023/07/28 11:05:30;;;;;;;7.97;2.30;;;26.70;99.90;;;;;;4981888;28;20046;-70
2023/07/28 11:08:01;;;;;;;9.07;2.72;;;26.80;99.90;;;;;;4985073;28;140305;-70
2023/07/28 11:10:31;;;;;;;9.68;2.72;;;26.70;99.90;;;;;;4978347;28;21183;-70
2023/07/28 11:13:00;;;;;;;10.73;2.40;;;26.40;99.90;;;;;;4966225;28;52905;-70
2023/07/28 11:15:27;;;;;;;8.07;2.30;;;26.40;99.90;;;;;;4983396;28;20054;-70
2023/07/28 11:17:54;;;;;;;8.32;2.00;;;26.40;99.90;;;;;;4962535;28;223026;-69
2023/07/28 11:20:25;;;;;;;7.93;2.20;;;26.50;99.90;;;;;;4976541;28;20055;-70
2023/07/28 11:22:53;;;;;;;7.43;2.10;;;26.80;99.90;;;;;;4966653;28;51599;-71
2023/07/28 11:25:20;;;;;;;6.82;1.90;;;26.90;99.90;;;;;;4977641;28;20054;-70
2023/07/28 11:27:47;;;;;;;7.97;2.33;;;26.80;99.90;;;;;;4970258;28;46715;-71
2023/07/28 11:30:15;;;;;;;7.65;2.20;;;26.60;99.90;;;;;;4978246;28;20057;-70
2023/07/28 11:32:46;;;;;;;7.07;2.10;;;26.80;99.90;;;;;;4968488;28;259792;-69
2023/07/28 11:35:14;;;;;;;6.55;1.90;;;27.40;99.90;;;;;;4977032;28;20061;-71
2023/07/28 11:37:42;;;;;;;9.73;2.25;;;27.40;99.90;;;;;;4965754;28;256274;-70
2023/07/28 11:40:11;;;;;;;8.70;2.20;;;27.10;99.90;;;;;;4982707;28;20073;-71
2023/07/28 11:42:54;;;;;;;7.53;2.35;;;26.60;99.90;;;;;;4963004;28;264738;-69
2023/07/28 11:45:22;;;;;;;8.63;2.30;;;26.00;99.90;;;;;;4979280;28;20502;-70
2023/07/28 11:48:06;;;;;;;10.05;2.30;;;25.90;99.90;;;;;;4970621;28;253551;-70
2023/07/28 11:50:38;;;;;;;8.65;2.20;;;26.20;99.90;;;;;;4976165;28;20544;-68
2023/07/28 11:53:06;;;;;;;7.97;2.20;;;25.90;99.90;;;;;;4921712;28;233495;-69
2023/07/28 11:55:34;;;;;;;9.70;2.55;;;25.90;99.90;;;;;;4984668;28;20061;-69
2023/07/28 11:58:04;;;;;;;8.75;2.50;;;25.70;99.90;;;;;;4948220;28;235712;-71
2023/07/28 12:00:34;;;;;;;9.55;3.03;;;25.40;99.90;;;;;;4975035;28;20456;-70
2023/07/28 12:03:04;;;;;;;11.70;3.23;;;25.30;99.90;;;;;;4971122;28;120082;-70
2023/07/28 12:05:32;;;;;;;8.90;3.20;;;25.40;99.90;;;;;;4982513;28;20122;-69
2023/07/28 12:07:59;;;;;;;9.25;3.15;;;25.30;99.90;;;;;;4962679;28;263500;-70
2023/07/28 12:10:25;;;;;;;10.93;3.05;;;25.30;99.90;;;;;;4961194;28;20058;-70
2023/07/28 12:12:51;;;;;;;8.43;2.88;;;25.00;99.90;;;;;;4972399;28;75208;-69
2023/07/28 12:15:22;;;;;;;12.00;3.08;;;25.20;99.90;;;;;;4988288;28;20038;-70
2023/07/28 12:18:20;;;;;;;11.00;3.80;;;25.60;99.90;;;;;;4965024;28;249632;-69
2023/07/28 12:20:49;;;;;;;10.68;3.85;;;25.60;99.90;;;;;;4955453;28;20512;-68
2023/07/28 12:23:20;;;;;;;9.43;4.00;;;25.60;99.90;;;;;;4963585;28;220363;-69
2023/07/28 12:25:47;;;;;;;9.18;3.08;;;25.80;99.90;;;;;;4979561;28;20050;-69
2023/07/28 12:28:13;;;;;;;10.20;2.90;;;25.90;99.90;;;;;;4954471;28;264785;-71
2023/07/28 12:30:40;;;;;;;8.05;2.95;;;25.90;99.90;;;;;;4967354;28;20073;-70
2023/07/28 12:33:06;;;;;;;9.30;3.50;;;25.90;99.90;;;;;;4965982;28;162428;-70